Time;durP1;ratioP1;P1;durP2;ratioP2;P2;SDS_P1;SDS_P2;PMS_P1;PMS_P2;Temp;Humidity;BMP_temperature;BMP_pressure;BME280_temperature;BME280_humidity;BME280_pressure;Samples;Min_cycle;Max_cycle;Signal;HPM_P1;HPM_P2
2022/09/29 00:04:10;;;;;;;1.80;0.75;;;19.30;46.70;;;;;;20836490;28;20141;-55
2022/09/29 00:14:12;;;;;;;1.13;0.60;;;19.20;47.10;;;;;;20836329;28;20053;-55
2022/09/29 00:24:14;;;;;;;1.13;0.50;;;19.20;47.50;;;;;;20817212;28;20541;-57
2022/09/29 00:34:15;;;;;;;1.75;0.73;;;19.10;47.70;;;;;;20834187;28;20072;-55
2022/09/29 00:44:20;;;;;;;1.60;0.70;;;19.20;47.80;;;;;;20833281;28;20137;-56
2022/09/29 00:54:28;;;;;;;2.95;1.00;;;19.00;48.60;;;;;;20832443;28;20052;-56
2022/09/29 01:04:30;;;;;;;2.28;0.60;;;19.10;48.60;;;;;;20831776;28;20053;-55
2022/09/29 01:14:33;;;;;;;2.88;0.60;;;18.90;47.70;;;;;;20831121;28;20049;-55
2022/09/29 01:25:05;;;;;;;3.55;1.02;;;18.60;47.70;;;;;;20831633;28;20557;-56
2022/09/29 01:35:10;;;;;;;;;;;18.30;48.30;;;;;;20658602;28;20116;-55
2022/09/29 01:46:00;;;;;;;2.95;0.70;;;18.20;48.40;;;;;;20658306;28;20016;-58
2022/09/29 01:56:10;;;;;;;1.25;0.65;;;18.10;48.60;;;;;;20418295;29;20441;-55
2022/09/29 02:06:19;;;;;;;2.00;0.50;;;18.00;49.20;;;;;;20441827;29;20524;-55
2022/09/29 02:16:26;;;;;;;1.23;0.60;;;18.00;49.70;;;;;;20497287;28;20151;-55
2022/09/29 02:26:36;;;;;;;1.85;1.15;;;17.70;50.30;;;;;;20795682;28;20060;-56
2022/09/29 02:36:50;;;;;;;3.38;0.70;;;17.70;50.60;;;;;;20843252;28;20054;-57
2022/09/29 02:47:22;;;;;;;1.63;0.75;;;17.70;50.70;;;;;;20825086;28;20058;-56
2022/09/29 02:57:33;;;;;;;2.08;0.80;;;17.60;50.80;;;;;;20841367;28;20052;-57
2022/09/29 03:07:39;;;;;;;1.27;0.77;;;17.60;50.70;;;;;;20841073;28;20060;-56
2022/09/29 03:17:42;;;;;;;2.47;0.95;;;17.60;50.60;;;;;;20840915;28;20049;-56
2022/09/29 03:27:45;;;;;;;3.53;1.33;;;17.50;50.20;;;;;;20838856;28;20433;-56
2022/09/29 03:37:48;;;;;;;2.63;1.10;;;17.50;49.20;;;;;;20837617;28;20060;-55
2022/09/29 03:47:51;;;;;;;3.50;0.88;;;17.40;49.10;;;;;;20837744;28;20053;-56
2022/09/29 03:57:52;;;;;;;4.75;0.90;;;17.40;49.30;;;;;;20836570;28;20135;-56
2022/09/29 04:07:54;;;;;;;2.88;1.10;;;17.40;49.50;;;;;;20835621;28;20053;-55
2022/09/29 04:17:57;;;;;;;3.28;1.15;;;17.30;49.10;;;;;;20834909;28;20041;-57
2022/09/29 04:27:59;;;;;;;5.13;1.20;;;17.20;49.50;;;;;;20835359;28;20049;-57
2022/09/29 04:38:01;;;;;;;3.92;1.13;;;17.10;49.70;;;;;;20833218;28;20053;-56
2022/09/29 04:48:06;;;;;;;3.85;1.30;;;17.10;49.20;;;;;;20832666;28;20049;-56
2022/09/29 04:58:08;;;;;;;5.47;1.42;;;17.00;49.00;;;;;;20815260;28;20148;-56
2022/09/29 05:08:10;;;;;;;4.03;1.60;;;16.90;49.10;;;;;;20831589;28;20054;-57
2022/09/29 05:18:11;;;;;;;3.97;2.05;;;16.80;49.30;;;;;;20831503;28;20050;-56
2022/09/29 05:28:14;;;;;;;4.00;1.52;;;16.90;48.90;;;;;;20831737;28;20057;-56
2022/09/29 05:38:15;;;;;;;5.63;1.75;;;16.80;48.90;;;;;;20829216;28;20387;-56
2022/09/29 05:48:17;;;;;;;6.72;1.60;;;16.70;48.80;;;;;;20829551;28;20053;-57
2022/09/29 05:58:18;;;;;;;7.15;1.90;;;16.70;48.80;;;;;;20840318;28;20076;-58
2022/09/29 06:08:19;;;;;;;4.22;1.70;;;16.60;49.40;;;;;;20846421;28;20060;-56
2022/09/29 06:18:21;;;;;;;6.28;1.83;;;16.50;49.70;;;;;;20845752;28;20513;-56
2022/09/29 06:28:22;;;;;;;7.05;1.63;;;16.20;50.00;;;;;;20843501;28;20595;-56
2022/09/29 06:38:24;;;;;;;6.75;2.60;;;16.40;49.60;;;;;;20842982;28;20045;-56
2022/09/29 06:48:28;;;;;;;6.93;1.65;;;16.50;49.40;;;;;;20842483;28;20053;-58
2022/09/29 06:58:29;;;;;;;4.33;1.30;;;16.50;49.20;;;;;;20841814;28;20050;-55
2022/09/29 07:08:34;;;;;;;4.93;1.90;;;16.50;48.60;;;;;;20840408;28;20053;-57
2022/09/29 07:18:38;;;;;;;3.50;1.58;;;16.50;49.00;;;;;;20839932;28;20049;-55
2022/09/29 07:28:40;;;;;;;7.25;1.50;;;16.40;49.80;;;;;;20838805;28;20049;-57
2022/09/29 07:38:45;;;;;;;4.47;1.70;;;16.50;49.60;;;;;;20839283;28;20050;-55
2022/09/29 07:48:46;;;;;;;11.05;2.15;;;16.70;48.60;;;;;;20837786;28;20159;-57
2022/09/29 07:58:49;;;;;;;4.53;1.42;;;16.90;48.00;;;;;;20837024;28;20481;-56
2022/09/29 08:08:51;;;;;;;5.78;1.33;;;17.00;47.80;;;;;;20835908;28;20054;-57
2022/09/29 08:18:53;;;;;;;4.25;1.35;;;17.00;48.10;;;;;;20834266;28;20501;-56
2022/09/29 08:28:54;;;;;;;4.22;1.23;;;17.10;47.90;;;;;;20834099;28;20111;-56
2022/09/29 08:38:57;;;;;;;5.65;1.15;;;17.20;47.90;;;;;;20834153;28;20046;-56
2022/09/29 08:49:20;;;;;;;5.47;1.30;;;17.30;48.20;;;;;;21152375;27;20580;-57
2022/09/29 08:59:24;;;;;;;2.88;1.20;;;17.30;47.70;;;;;;21152174;28;20047;-57
2022/09/29 09:09:43;;;;;;;6.60;1.65;;;17.40;47.80;;;;;;20906070;28;20057;-58
2022/09/29 09:20:09;;;;;;;7.60;1.92;;;17.40;48.10;;;;;;20816375;28;20555;-56
2022/09/29 09:30:29;;;;;;;6.88;2.90;;;17.40;53.40;;;;;;20817764;28;20491;-56
2022/09/29 09:40:44;;;;;;;5.05;2.00;;;19.90;45.70;;;;;;20803614;28;20397;-56
2022/09/29 09:50:48;;;;;;;3.38;1.40;;;20.70;43.00;;;;;;20835113;28;20516;-58
2022/09/29 10:00:57;;;;;;;3.67;1.05;;;21.00;41.40;;;;;;20793637;28;20486;-57
2022/09/29 10:10:59;;;;;;;4.25;1.80;;;21.10;41.20;;;;;;20763902;28;20462;-55
2022/09/29 10:21:00;;;;;;;3.85;1.10;;;21.20;40.70;;;;;;20793777;28;20049;-56
2022/09/29 10:31:01;;;;;;;3.72;1.40;;;21.20;40.30;;;;;;20811489;28;20068;-57
2022/09/29 10:49:17;;;;;;;7.20;2.67;;;21.20;40.10;;;;;;21000822;27;2041720;-57
2022/09/29 10:59:19;;;;;;;7.45;1.98;;;21.40;40.10;;;;;;21122128;28;20051;-59
2022/09/29 11:09:20;;;;;;;3.85;1.20;;;21.30;40.50;;;;;;21150485;28;20052;-57
2022/09/29 11:19:22;;;;;;;2.22;0.95;;;20.50;41.40;;;;;;21150109;28;20058;-57
2022/09/29 11:29:40;;;;;;;2.80;0.90;;;19.70;43.10;;;;;;21149166;28;20047;-58
2022/09/29 11:39:51;;;;;;;2.38;0.80;;;19.20;44.50;;;;;;21129376;28;20060;-60
2022/09/29 11:50:16;;;;;;;2.65;1.00;;;19.20;44.80;;;;;;21147356;28;20122;-61
2022/09/29 12:00:20;;;;;;;5.65;1.08;;;19.20;45.10;;;;;;20734366;28;20053;-59
2022/09/29 12:10:43;;;;;;;1.75;0.90;;;19.20;45.60;;;;;;20750015;28;20536;-60
2022/09/29 12:20:48;;;;;;;3.10;1.65;;;19.20;45.60;;;;;;20749437;28;20107;-59
2022/09/29 12:30:58;;;;;;;3.20;2.05;;;19.20;46.80;;;;;;20827045;28;20530;-61
2022/09/29 12:41:22;;;;;;;2.67;1.20;;;19.20;45.80;;;;;;21086328;28;20056;-60
2022/09/29 12:51:37;;;;;;;3.33;1.25;;;19.20;46.00;;;;;;21086218;28;20123;-59
2022/09/29 13:01:39;;;;;;;3.25;1.40;;;19.20;45.70;;;;;;21066902;28;20067;-59
2022/09/29 13:12:15;;;;;;;4.93;1.60;;;19.20;46.00;;;;;;21084456;28;20103;-60
2022/09/29 13:22:17;;;;;;;3.55;1.70;;;18.80;52.40;;;;;;21083275;28;20052;-57
2022/09/29 13:32:22;;;;;;;5.85;2.83;;;18.00;60.10;;;;;;21064448;28;20051;-60
2022/09/29 13:42:36;;;;;;;7.17;2.37;;;17.60;62.80;;;;;;21081845;28;20052;-58
2022/09/29 13:52:39;;;;;;;;;;;17.80;63.20;;;;;;21081336;28;20469;-61
2022/09/29 14:02:42;;;;;;;4.75;2.28;;;17.70;62.10;;;;;;21080205;28;19967;-59
2022/09/29 14:12:49;;;;;;;4.88;2.10;;;17.70;63.40;;;;;;21079558;28;20056;-59
2022/09/29 14:22:57;;;;;;;7.05;2.78;;;17.90;63.10;;;;;;21078764;28;20048;-61
2022/09/29 14:33:20;;;;;;;4.97;2.05;;;17.70;61.70;;;;;;21078564;28;20376;-60
2022/09/29 14:43:45;;;;;;;3.70;1.80;;;18.20;59.70;;;;;;21077856;28;20067;-60
2022/09/29 14:54:06;;;;;;;4.22;1.85;;;18.40;59.60;;;;;;21078753;28;20048;-59
2022/09/29 15:04:14;;;;;;;4.93;2.33;;;18.20;58.70;;;;;;21077368;28;20044;-60
2022/09/29 15:14:24;;;;;;;2.72;1.20;;;18.40;57.40;;;;;;21069145;28;20127;-64
2022/09/29 15:25:02;;;;;;;3.83;2.15;;;18.70;55.10;;;;;;21042793;28;20156;-66
2022/09/29 15:35:06;;;;;;;3.92;1.30;;;20.20;51.20;;;;;;21031618;28;20043;-61
2022/09/29 15:45:16;;;;;;;4.47;1.33;;;20.60;50.10;;;;;;21063544;28;20051;-60
2022/09/29 15:55:21;;;;;;;2.75;1.20;;;20.50;50.10;;;;;;21107456;28;20047;-59
2022/09/29 16:05:24;;;;;;;4.72;1.30;;;20.80;49.10;;;;;;21071931;28;20075;-59
2022/09/29 16:15:33;;;;;;;32.50;27.52;;;20.90;48.80;;;;;;21071905;28;20048;-59
2022/09/29 16:25:35;;;;;;;4.05;1.58;;;21.00;49.40;;;;;;21065713;28;20052;-56
2022/09/29 16:35:52;;;;;;;4.72;1.40;;;20.90;48.80;;;;;;21052845;28;20101;-59
2022/09/29 16:45:55;;;;;;;2.35;1.27;;;20.80;49.30;;;;;;21072515;28;20055;-58
2022/09/29 16:56:03;;;;;;;5.97;1.92;;;20.90;49.50;;;;;;21057722;28;20480;-55
2022/09/29 17:06:05;;;;;;;4.57;2.00;;;20.90;49.90;;;;;;21083635;28;20070;-61
2022/09/29 17:16:09;;;;;;;7.10;2.90;;;20.80;51.10;;;;;;21017710;28;20097;-60
2022/09/29 17:36:40;;;;;;;3.97;2.33;;;19.60;53.00;;;;;;21049783;28;20335;-60
2022/09/29 17:46:44;;;;;;;3.95;1.90;;;18.50;57.10;;;;;;21051864;28;20094;-63
2022/09/29 17:56:45;;;;;;;4.25;1.40;;;18.10;58.90;;;;;;21048654;28;21162;-62
2022/09/29 18:06:47;;;;;;;9.30;5.40;;;19.90;55.00;;;;;;21078477;28;20056;-61
2022/09/29 18:16:48;;;;;;;6.40;4.00;;;20.60;53.70;;;;;;21086919;28;20108;-58
2022/09/29 18:26:51;;;;;;;3.50;1.50;;;20.70;53.40;;;;;;21028132;28;20134;-59
2022/09/29 18:36:52;;;;;;;2.10;1.20;;;20.70;51.40;;;;;;21155418;28;20136;-59
2022/09/29 18:46:54;;;;;;;4.28;1.05;;;19.00;50.90;;;;;;21163043;28;20135;-63
2022/09/29 18:56:56;;;;;;;2.55;0.93;;;17.90;52.90;;;;;;21144709;28;20075;-61
2022/09/29 19:06:57;;;;;;;1.45;0.85;;;17.50;53.10;;;;;;21174029;28;20100;-62
2022/09/29 19:16:59;;;;;;;1.58;1.02;;;17.20;51.60;;;;;;21179971;28;20044;-58
2022/09/29 19:27:00;;;;;;;3.80;1.30;;;17.10;52.50;;;;;;21177646;28;20047;-59
2022/09/29 19:37:02;;;;;;;3.53;1.70;;;17.00;52.70;;;;;;21177229;28;20067;-61
2022/09/29 19:47:05;;;;;;;2.30;1.45;;;16.80;52.60;;;;;;21175857;28;20419;-58
2022/09/29 19:57:10;;;;;;;3.95;1.33;;;16.70;52.40;;;;;;21174927;28;20044;-62
2022/09/29 20:07:12;;;;;;;3.13;1.65;;;16.50;52.80;;;;;;21175230;28;20048;-60
2022/09/29 20:17:14;;;;;;;3.70;1.50;;;16.40;53.10;;;;;;21173439;28;20047;-60
2022/09/29 20:27:15;;;;;;;2.88;1.50;;;16.20;54.50;;;;;;21172443;28;20059;-63
2022/09/29 20:37:16;;;;;;;3.97;1.90;;;16.20;54.90;;;;;;21172165;28;20054;-63
2022/09/29 20:47:18;;;;;;;3.58;1.90;;;16.20;54.40;;;;;;21170899;28;20090;-61
2022/09/29 20:57:19;;;;;;;4.18;2.17;;;16.20;55.00;;;;;;21169380;28;20052;-63
2022/09/29 21:07:42;;;;;;;4.05;1.10;;;16.10;55.50;;;;;;21169526;28;20399;-61
2022/09/29 21:17:43;;;;;;;5.07;1.77;;;16.00;55.10;;;;;;21168311;28;20079;-58
2022/09/29 21:27:44;;;;;;;4.32;2.10;;;16.00;55.80;;;;;;21167211;28;20063;-58
2022/09/29 21:37:45;;;;;;;4.95;2.17;;;16.00;55.70;;;;;;21166688;28;20119;-57
2022/09/29 21:58:07;;;;;;;4.03;1.60;;;15.90;56.90;;;;;;21165740;28;20074;-60
2022/09/29 22:08:09;;;;;;;2.85;1.40;;;15.70;58.10;;;;;;21164606;28;20056;-62
2022/09/29 22:18:11;;;;;;;2.13;1.25;;;15.60;58.50;;;;;;21164304;28;20069;-61
2022/09/29 22:28:13;;;;;;;4.10;1.40;;;15.40;59.20;;;;;;21163161;28;20423;-61
2022/09/29 22:38:14;;;;;;;2.80;1.48;;;15.40;58.90;;;;;;21163736;28;20396;-62
2022/09/29 22:48:17;;;;;;;1.52;0.80;;;15.60;57.50;;;;;;21144165;28;20081;-62
2022/09/29 22:58:19;;;;;;;2.13;0.90;;;15.90;55.10;;;;;;21163058;28;20535;-62
2022/09/29 23:08:20;;;;;;;3.75;0.90;;;15.90;54.60;;;;;;21162623;28;20081;-61
2022/09/29 23:18:22;;;;;;;1.75;0.90;;;15.90;54.60;;;;;;21144634;28;20126;-58
2022/09/29 23:28:24;;;;;;;1.33;0.70;;;15.90;54.40;;;;;;21162406;28;20047;-56
2022/09/29 23:48:45;;;;;;;1.30;0.50;;;15.70;54.40;;;;;;21163660;28;20091;-60
2022/09/29 23:58:47;;;;;;;1.38;0.60;;;15.70;50.50;;;;;;21157296;28;20044;-58
